sensor_id;sensor_type;location;lat;lon;timestamp;temperature;humidity
84008;DHT22;74070;50.948;6.954;2024-02-14T00:02:25;9.10;99.90
84008;DHT22;74070;50.948;6.954;2024-02-14T00:04:53;9.20;99.90
84008;DHT22;74070;50.948;6.954;2024-02-14T00:07:20;9.20;99.90
84008;DHT22;74070;50.948;6.954;2024-02-14T00:09:47;9.30;99.90
84008;DHT22;74070;50.948;6.954;2024-02-14T00:12:15;9.30;99.90
84008;DHT22;74070;50.948;6.954;2024-02-14T00:14:42;9.30;99.90
84008;DHT22;74070;50.948;6.954;2024-02-14T00:17:09;9.30;99.90
84008;DHT22;74070;50.948;6.954;2024-02-14T00:19:36;9.30;99.90
84008;DHT22;74070;50.948;6.954;2024-02-14T00:22:03;9.40;99.90
84008;DHT22;74070;50.948;6.954;2024-02-14T00:24:29;9.40;99.90
84008;DHT22;74070;50.948;6.954;2024-02-14T00:26:56;9.40;99.90
84008;DHT22;74070;50.948;6.954;2024-02-14T00:29:22;9.40;99.90
84008;DHT22;74070;50.948;6.954;2024-02-14T00:31:49;9.20;99.90
84008;DHT22;74070;50.948;6.954;2024-02-14T00:34:16;9.20;99.90
84008;DHT22;74070;50.948;6.954;2024-02-14T00:36:42;9.10;99.90
84008;DHT22;74070;50.948;6.954;2024-02-14T00:39:09;9.00;99.90
84008;DHT22;74070;50.948;6.954;2024-02-14T00:41:35;8.90;99.90
84008;DHT22;74070;50.948;6.954;2024-02-14T00:44:02;8.90;99.90
84008;DHT22;74070;50.948;6.954;2024-02-14T00:46:29;8.80;99.90
84008;DHT22;74070;50.948;6.954;2024-02-14T00:48:57;8.80;99.90
84008;DHT22;74070;50.948;6.954;2024-02-14T00:51:24;8.90;99.90
84008;DHT22;74070;50.948;6.954;2024-02-14T00:53:51;8.90;99.90
84008;DHT22;74070;50.948;6.954;2024-02-14T00:56:17;9.00;99.90
84008;DHT22;74070;50.948;6.954;2024-02-14T00:58:45;9.10;99.90
84008;DHT22;74070;50.948;6.954;2024-02-14T01:01:12;9.10;99.90
84008;DHT22;74070;50.948;6.954;2024-02-14T01:03:39;9.10;99.90
84008;DHT22;74070;50.948;6.954;2024-02-14T01:06:05;9.10;99.90
84008;DHT22;74070;50.948;6.954;2024-02-14T01:08:33;9.20;99.90
84008;DHT22;74070;50.948;6.954;2024-02-14T01:11:00;9.20;99.90
84008;DHT22;74070;50.948;6.954;2024-02-14T01:13:27;9.20;99.90
84008;DHT22;74070;50.948;6.954;2024-02-14T01:15:55;9.20;99.90
84008;DHT22;74070;50.948;6.954;2024-02-14T01:18:22;9.20;99.90
84008;DHT22;74070;50.948;6.954;2024-02-14T01:20:49;9.20;99.90
84008;DHT22;74070;50.948;6.954;2024-02-14T01:23:17;9.20;99.90
84008;DHT22;74070;50.948;6.954;2024-02-14T01:25:44;9.20;99.90
84008;DHT22;74070;50.948;6.954;2024-02-14T01:28:11;9.20;99.90
84008;DHT22;74070;50.948;6.954;2024-02-14T01:30:39;9.20;99.90
84008;DHT22;74070;50.948;6.954;2024-02-14T01:33:05;9.20;99.90
84008;DHT22;74070;50.948;6.954;2024-02-14T01:35:32;9.20;99.90
84008;DHT22;74070;50.948;6.954;2024-02-14T01:37:59;9.20;99.90
84008;DHT22;74070;50.948;6.954;2024-02-14T01:40:27;9.30;99.90
84008;DHT22;74070;50.948;6.954;2024-02-14T01:42:54;9.30;99.90
84008;DHT22;74070;50.948;6.954;2024-02-14T01:45:21;9.20;99.90
84008;DHT22;74070;50.948;6.954;2024-02-14T01:47:49;9.30;99.90
84008;DHT22;74070;50.948;6.954;2024-02-14T01:50:16;9.30;99.90
84008;DHT22;74070;50.948;6.954;2024-02-14T01:52:43;9.20;99.90
84008;DHT22;74070;50.948;6.954;2024-02-14T01:55:09;9.30;99.90
84008;DHT22;74070;50.948;6.954;2024-02-14T01:57:36;9.30;99.90
84008;DHT22;74070;50.948;6.954;2024-02-14T02:00:03;9.30;99.90
84008;DHT22;74070;50.948;6.954;2024-02-14T02:02:31;9.30;99.90
84008;DHT22;74070;50.948;6.954;2024-02-14T02:04:58;9.30;99.90
84008;DHT22;74070;50.948;6.954;2024-02-14T02:07:24;9.30;99.90
84008;DHT22;74070;50.948;6.954;2024-02-14T02:09:52;9.30;99.90
84008;DHT22;74070;50.948;6.954;2024-02-14T02:12:19;9.30;99.90
84008;DHT22;74070;50.948;6.954;2024-02-14T02:14:47;9.30;99.90
84008;DHT22;74070;50.948;6.954;2024-02-14T02:17:14;9.30;99.90
84008;DHT22;74070;50.948;6.954;2024-02-14T02:19:41;9.30;99.90
84008;DHT22;74070;50.948;6.954;2024-02-14T02:22:09;9.30;99.90
84008;DHT22;74070;50.948;6.954;2024-02-14T02:24:35;9.30;99.90
84008;DHT22;74070;50.948;6.954;2024-02-14T02:27:02;9.30;99.90
84008;DHT22;74070;50.948;6.954;2024-02-14T02:29:28;9.30;99.90
84008;DHT22;74070;50.948;6.954;2024-02-14T02:31:55;9.30;99.90
84008;DHT22;74070;50.948;6.954;2024-02-14T02:34:22;9.30;99.90
84008;DHT22;74070;50.948;6.954;2024-02-14T02:36:48;9.30;99.90
84008;DHT22;74070;50.948;6.954;2024-02-14T02:39:15;9.30;99.90
84008;DHT22;74070;50.948;6.954;2024-02-14T02:41:41;9.30;99.90
84008;DHT22;74070;50.948;6.954;2024-02-14T02:44:09;9.30;99.90
84008;DHT22;74070;50.948;6.954;2024-02-14T02:46:36;9.30;99.90
84008;DHT22;74070;50.948;6.954;2024-02-14T02:49:03;9.30;99.90
84008;DHT22;74070;50.948;6.954;2024-02-14T02:51:31;9.40;99.90
84008;DHT22;74070;50.948;6.954;2024-02-14T02:53:58;9.40;99.90
84008;DHT22;74070;50.948;6.954;2024-02-14T02:56:26;9.50;99.90
84008;DHT22;74070;50.948;6.954;2024-02-14T02:58:54;9.50;99.90
84008;DHT22;74070;50.948;6.954;2024-02-14T03:01:20;9.50;99.90
84008;DHT22;74070;50.948;6.954;2024-02-14T03:03:48;9.50;99.90
84008;DHT22;74070;50.948;6.954;2024-02-14T03:06:15;9.60;99.90
84008;DHT22;74070;50.948;6.954;2024-02-14T03:08:42;9.50;99.90
84008;DHT22;74070;50.948;6.954;2024-02-14T03:11:08;9.60;99.90
84008;DHT22;74070;50.948;6.954;2024-02-14T03:13:35;9.60;99.90
84008;DHT22;74070;50.948;6.954;2024-02-14T03:16:02;9.60;99.90
84008;DHT22;74070;50.948;6.954;2024-02-14T03:18:29;9.60;99.90
84008;DHT22;74070;50.948;6.954;2024-02-14T03:20:55;9.60;99.90
84008;DHT22;74070;50.948;6.954;2024-02-14T03:23:22;9.60;99.90
84008;DHT22;74070;50.948;6.954;2024-02-14T03:25:49;9.60;99.90
84008;DHT22;74070;50.948;6.954;2024-02-14T03:28:17;9.60;99.90
84008;DHT22;74070;50.948;6.954;2024-02-14T03:30:44;9.60;99.90
84008;DHT22;74070;50.948;6.954;2024-02-14T03:33:11;9.60;99.90
84008;DHT22;74070;50.948;6.954;2024-02-14T03:35:39;9.60;99.90
84008;DHT22;74070;50.948;6.954;2024-02-14T03:38:05;9.60;99.90
84008;DHT22;74070;50.948;6.954;2024-02-14T03:40:32;9.60;99.90
84008;DHT22;74070;50.948;6.954;2024-02-14T03:42:59;9.60;99.90
84008;DHT22;74070;50.948;6.954;2024-02-14T03:45:25;9.60;99.90
84008;DHT22;74070;50.948;6.954;2024-02-14T03:47:52;9.60;99.90
84008;DHT22;74070;50.948;6.954;2024-02-14T03:50:18;9.60;99.90
84008;DHT22;74070;50.948;6.954;2024-02-14T03:52:45;9.60;99.90
84008;DHT22;74070;50.948;6.954;2024-02-14T03:55:13;9.60;99.90
84008;DHT22;74070;50.948;6.954;2024-02-14T03:57:39;9.60;99.90
84008;DHT22;74070;50.948;6.954;2024-02-14T04:00:07;9.60;99.90
84008;DHT22;74070;50.948;6.954;2024-02-14T04:02:34;9.60;99.90
84008;DHT22;74070;50.948;6.954;2024-02-14T04:05:01;9.60;99.90
84008;DHT22;74070;50.948;6.954;2024-02-14T04:07:27;9.60;99.90
84008;DHT22;74070;50.948;6.954;2024-02-14T04:09:54;9.60;99.90
84008;DHT22;74070;50.948;6.954;2024-02-14T04:12:20;9.60;99.90
84008;DHT22;74070;50.948;6.954;2024-02-14T04:14:47;9.60;99.90
84008;DHT22;74070;50.948;6.954;2024-02-14T04:17:14;9.70;99.90
84008;DHT22;74070;50.948;6.954;2024-02-14T04:19:40;9.70;99.90
84008;DHT22;74070;50.948;6.954;2024-02-14T04:22:07;9.70;99.90
84008;DHT22;74070;50.948;6.954;2024-02-14T04:24:34;9.70;99.90
84008;DHT22;74070;50.948;6.954;2024-02-14T04:27:01;9.60;99.90
84008;DHT22;74070;50.948;6.954;2024-02-14T04:29:28;9.70;99.90
84008;DHT22;74070;50.948;6.954;2024-02-14T04:31:56;9.70;99.90
84008;DHT22;74070;50.948;6.954;2024-02-14T04:34:23;9.70;99.90
84008;DHT22;74070;50.948;6.954;2024-02-14T04:36:49;9.70;99.90
84008;DHT22;74070;50.948;6.954;2024-02-14T04:39:16;9.70;99.90
84008;DHT22;74070;50.948;6.954;2024-02-14T04:41:43;9.70;99.90
84008;DHT22;74070;50.948;6.954;2024-02-14T04:44:09;9.70;99.90
84008;DHT22;74070;50.948;6.954;2024-02-14T04:46:36;9.70;99.90
84008;DHT22;74070;50.948;6.954;2024-02-14T04:49:02;9.80;99.90
84008;DHT22;74070;50.948;6.954;2024-02-14T04:51:30;9.70;99.90
84008;DHT22;74070;50.948;6.954;2024-02-14T04:53:57;9.70;99.90
84008;DHT22;74070;50.948;6.954;2024-02-14T04:56:27;9.70;99.90
84008;DHT22;74070;50.948;6.954;2024-02-14T04:58:53;9.70;99.90
84008;DHT22;74070;50.948;6.954;2024-02-14T05:01:19;9.70;99.90
84008;DHT22;74070;50.948;6.954;2024-02-14T05:03:46;9.70;99.90
84008;DHT22;74070;50.948;6.954;2024-02-14T05:06:13;9.70;99.90
84008;DHT22;74070;50.948;6.954;2024-02-14T05:08:40;9.70;99.90
84008;DHT22;74070;50.948;6.954;2024-02-14T05:11:07;9.70;99.90
84008;DHT22;74070;50.948;6.954;2024-02-14T05:13:34;9.70;99.90
84008;DHT22;74070;50.948;6.954;2024-02-14T05:16:04;9.70;99.90
84008;DHT22;74070;50.948;6.954;2024-02-14T05:18:30;9.70;99.90
84008;DHT22;74070;50.948;6.954;2024-02-14T05:20:58;9.70;99.90
84008;DHT22;74070;50.948;6.954;2024-02-14T05:23:25;9.70;99.90
84008;DHT22;74070;50.948;6.954;2024-02-14T05:25:52;9.80;99.90
84008;DHT22;74070;50.948;6.954;2024-02-14T05:28:19;9.70;99.90
84008;DHT22;74070;50.948;6.954;2024-02-14T05:30:45;9.80;99.90
84008;DHT22;74070;50.948;6.954;2024-02-14T05:33:13;9.90;99.90
84008;DHT22;74070;50.948;6.954;2024-02-14T05:35:40;9.80;99.90
84008;DHT22;74070;50.948;6.954;2024-02-14T05:38:07;9.90;99.90
84008;DHT22;74070;50.948;6.954;2024-02-14T05:40:35;9.90;99.90
84008;DHT22;74070;50.948;6.954;2024-02-14T05:43:02;9.90;99.90
84008;DHT22;74070;50.948;6.954;2024-02-14T05:45:29;9.90;99.90
84008;DHT22;74070;50.948;6.954;2024-02-14T05:47:55;9.80;99.90
84008;DHT22;74070;50.948;6.954;2024-02-14T05:50:22;9.70;99.90
84008;DHT22;74070;50.948;6.954;2024-02-14T05:52:49;9.50;99.90
84008;DHT22;74070;50.948;6.954;2024-02-14T05:55:15;9.40;99.90
84008;DHT22;74070;50.948;6.954;2024-02-14T05:57:42;9.30;99.90
84008;DHT22;74070;50.948;6.954;2024-02-14T06:00:09;9.20;99.90
84008;DHT22;74070;50.948;6.954;2024-02-14T06:02:36;9.20;99.90
84008;DHT22;74070;50.948;6.954;2024-02-14T06:05:02;9.20;99.90
84008;DHT22;74070;50.948;6.954;2024-02-14T06:07:29;9.20;99.90
84008;DHT22;74070;50.948;6.954;2024-02-14T06:09:55;9.20;99.90
84008;DHT22;74070;50.948;6.954;2024-02-14T06:12:22;9.20;99.90
84008;DHT22;74070;50.948;6.954;2024-02-14T06:14:49;9.10;99.90
84008;DHT22;74070;50.948;6.954;2024-02-14T06:17:15;9.10;99.90
84008;DHT22;74070;50.948;6.954;2024-02-14T06:19:42;9.10;99.90
84008;DHT22;74070;50.948;6.954;2024-02-14T06:22:08;9.10;99.90
84008;DHT22;74070;50.948;6.954;2024-02-14T06:24:35;9.10;99.90
84008;DHT22;74070;50.948;6.954;2024-02-14T06:27:01;9.10;99.90
84008;DHT22;74070;50.948;6.954;2024-02-14T06:29:28;9.10;99.90
84008;DHT22;74070;50.948;6.954;2024-02-14T06:31:54;9.10;99.90
84008;DHT22;74070;50.948;6.954;2024-02-14T06:34:21;9.20;99.90
84008;DHT22;74070;50.948;6.954;2024-02-14T06:36:48;9.20;99.90
84008;DHT22;74070;50.948;6.954;2024-02-14T06:39:14;9.30;99.90
84008;DHT22;74070;50.948;6.954;2024-02-14T06:41:42;9.40;99.90
84008;DHT22;74070;50.948;6.954;2024-02-14T06:44:09;9.50;99.90
84008;DHT22;74070;50.948;6.954;2024-02-14T06:46:36;9.60;99.90
84008;DHT22;74070;50.948;6.954;2024-02-14T06:49:03;9.50;99.90
84008;DHT22;74070;50.948;6.954;2024-02-14T06:51:30;9.70;99.90
84008;DHT22;74070;50.948;6.954;2024-02-14T06:53:56;9.70;99.90
84008;DHT22;74070;50.948;6.954;2024-02-14T06:56:23;9.80;99.90
84008;DHT22;74070;50.948;6.954;2024-02-14T06:58:49;9.80;99.90
84008;DHT22;74070;50.948;6.954;2024-02-14T07:01:16;9.80;99.90
84008;DHT22;74070;50.948;6.954;2024-02-14T07:03:42;9.80;99.90
84008;DHT22;74070;50.948;6.954;2024-02-14T07:06:09;9.70;99.90
84008;DHT22;74070;50.948;6.954;2024-02-14T07:08:36;9.80;99.90
84008;DHT22;74070;50.948;6.954;2024-02-14T07:11:02;9.80;99.90
84008;DHT22;74070;50.948;6.954;2024-02-14T07:13:29;9.80;99.90
84008;DHT22;74070;50.948;6.954;2024-02-14T07:15:56;9.80;99.90
84008;DHT22;74070;50.948;6.954;2024-02-14T07:18:23;9.80;99.90
84008;DHT22;74070;50.948;6.954;2024-02-14T07:20:49;9.80;99.90
84008;DHT22;74070;50.948;6.954;2024-02-14T07:23:16;9.80;99.90
84008;DHT22;74070;50.948;6.954;2024-02-14T07:25:43;9.90;99.90
84008;DHT22;74070;50.948;6.954;2024-02-14T07:28:09;9.90;99.90
84008;DHT22;74070;50.948;6.954;2024-02-14T07:30:36;9.90;99.90
84008;DHT22;74070;50.948;6.954;2024-02-14T07:33:03;9.80;99.90
84008;DHT22;74070;50.948;6.954;2024-02-14T07:35:30;9.80;99.90
84008;DHT22;74070;50.948;6.954;2024-02-14T07:37:56;9.80;99.90
84008;DHT22;74070;50.948;6.954;2024-02-14T07:40:24;9.80;99.90
84008;DHT22;74070;50.948;6.954;2024-02-14T07:42:50;9.80;99.90
84008;DHT22;74070;50.948;6.954;2024-02-14T07:45:17;9.90;99.90
84008;DHT22;74070;50.948;6.954;2024-02-14T07:47:43;9.90;99.90
84008;DHT22;74070;50.948;6.954;2024-02-14T07:50:10;10.00;99.90
84008;DHT22;74070;50.948;6.954;2024-02-14T07:52:41;10.10;99.90
84008;DHT22;74070;50.948;6.954;2024-02-14T07:55:05;10.10;99.90
84008;DHT22;74070;50.948;6.954;2024-02-14T07:57:32;10.10;99.90
84008;DHT22;74070;50.948;6.954;2024-02-14T07:59:59;10.20;99.90
84008;DHT22;74070;50.948;6.954;2024-02-14T08:02:25;10.20;99.90
84008;DHT22;74070;50.948;6.954;2024-02-14T08:04:52;10.30;99.90
84008;DHT22;74070;50.948;6.954;2024-02-14T08:07:18;10.40;99.90
84008;DHT22;74070;50.948;6.954;2024-02-14T08:09:45;10.40;99.90
84008;DHT22;74070;50.948;6.954;2024-02-14T08:12:12;10.40;99.90
84008;DHT22;74070;50.948;6.954;2024-02-14T08:14:38;10.50;99.90
84008;DHT22;74070;50.948;6.954;2024-02-14T08:17:05;10.60;99.90
84008;DHT22;74070;50.948;6.954;2024-02-14T08:19:31;10.60;99.90
84008;DHT22;74070;50.948;6.954;2024-02-14T08:21:58;10.70;99.90
84008;DHT22;74070;50.948;6.954;2024-02-14T08:24:26;10.80;99.90
84008;DHT22;74070;50.948;6.954;2024-02-14T08:26:52;10.90;99.90
84008;DHT22;74070;50.948;6.954;2024-02-14T08:29:19;11.10;99.90
84008;DHT22;74070;50.948;6.954;2024-02-14T08:31:45;11.10;99.90
84008;DHT22;74070;50.948;6.954;2024-02-14T08:34:12;11.20;99.90
84008;DHT22;74070;50.948;6.954;2024-02-14T08:36:38;11.30;99.90
84008;DHT22;74070;50.948;6.954;2024-02-14T08:39:06;11.50;99.90
84008;DHT22;74070;50.948;6.954;2024-02-14T08:41:33;11.50;99.90
84008;DHT22;74070;50.948;6.954;2024-02-14T08:44:00;11.50;99.90
84008;DHT22;74070;50.948;6.954;2024-02-14T08:46:26;11.50;99.90
84008;DHT22;74070;50.948;6.954;2024-02-14T08:48:53;11.60;99.90
84008;DHT22;74070;50.948;6.954;2024-02-14T08:51:20;11.70;99.90
84008;DHT22;74070;50.948;6.954;2024-02-14T08:53:46;11.80;99.90
84008;DHT22;74070;50.948;6.954;2024-02-14T08:56:13;11.70;99.90
84008;DHT22;74070;50.948;6.954;2024-02-14T08:58:39;11.70;99.90
84008;DHT22;74070;50.948;6.954;2024-02-14T09:01:06;11.70;99.90
84008;DHT22;74070;50.948;6.954;2024-02-14T09:03:33;11.80;99.90
84008;DHT22;74070;50.948;6.954;2024-02-14T09:05:59;11.90;99.90
84008;DHT22;74070;50.948;6.954;2024-02-14T09:08:26;11.90;99.90
84008;DHT22;74070;50.948;6.954;2024-02-14T09:10:52;12.00;99.90
84008;DHT22;74070;50.948;6.954;2024-02-14T09:13:20;12.10;99.90
84008;DHT22;74070;50.948;6.954;2024-02-14T09:15:47;12.10;99.90
84008;DHT22;74070;50.948;6.954;2024-02-14T09:18:14;12.10;99.90
84008;DHT22;74070;50.948;6.954;2024-02-14T09:20:42;12.10;99.90
84008;DHT22;74070;50.948;6.954;2024-02-14T09:23:08;12.10;99.90
84008;DHT22;74070;50.948;6.954;2024-02-14T09:25:35;12.30;99.90
84008;DHT22;74070;50.948;6.954;2024-02-14T09:28:02;12.40;99.90
84008;DHT22;74070;50.948;6.954;2024-02-14T09:30:28;12.50;99.90
84008;DHT22;74070;50.948;6.954;2024-02-14T09:32:55;12.70;99.90
84008;DHT22;74070;50.948;6.954;2024-02-14T09:35:21;12.80;99.90
84008;DHT22;74070;50.948;6.954;2024-02-14T09:37:48;12.90;99.90
84008;DHT22;74070;50.948;6.954;2024-02-14T09:40:15;13.10;99.90
84008;DHT22;74070;50.948;6.954;2024-02-14T09:42:44;13.20;99.90
84008;DHT22;74070;50.948;6.954;2024-02-14T09:45:10;13.10;99.90
84008;DHT22;74070;50.948;6.954;2024-02-14T09:47:37;13.30;99.90
84008;DHT22;74070;50.948;6.954;2024-02-14T09:50:03;13.30;99.90
84008;DHT22;74070;50.948;6.954;2024-02-14T09:52:31;13.30;99.90
84008;DHT22;74070;50.948;6.954;2024-02-14T09:54:58;13.40;99.90
84008;DHT22;74070;50.948;6.954;2024-02-14T09:57:25;13.30;99.90
84008;DHT22;74070;50.948;6.954;2024-02-14T09:59:53;13.20;99.90
84008;DHT22;74070;50.948;6.954;2024-02-14T10:02:20;13.20;99.90
84008;DHT22;74070;50.948;6.954;2024-02-14T10:04:47;13.20;99.90
84008;DHT22;74070;50.948;6.954;2024-02-14T10:07:14;13.20;99.90
84008;DHT22;74070;50.948;6.954;2024-02-14T10:09:41;13.10;99.90
84008;DHT22;74070;50.948;6.954;2024-02-14T10:12:09;13.30;99.90
84008;DHT22;74070;50.948;6.954;2024-02-14T10:14:36;13.30;99.90
84008;DHT22;74070;50.948;6.954;2024-02-14T10:17:02;13.30;99.90
84008;DHT22;74070;50.948;6.954;2024-02-14T10:19:28;13.30;99.90
84008;DHT22;74070;50.948;6.954;2024-02-14T10:21:56;13.30;99.90
84008;DHT22;74070;50.948;6.954;2024-02-14T10:24:23;13.20;99.90
84008;DHT22;74070;50.948;6.954;2024-02-14T10:26:49;13.00;99.90
84008;DHT22;74070;50.948;6.954;2024-02-14T10:29:17;13.00;99.90
84008;DHT22;74070;50.948;6.954;2024-02-14T10:31:43;13.00;99.90
84008;DHT22;74070;50.948;6.954;2024-02-14T10:34:10;13.10;99.90
84008;DHT22;74070;50.948;6.954;2024-02-14T10:36:37;13.20;99.90
84008;DHT22;74070;50.948;6.954;2024-02-14T10:39:03;13.30;99.90
84008;DHT22;74070;50.948;6.954;2024-02-14T10:41:30;13.50;99.90
84008;DHT22;74070;50.948;6.954;2024-02-14T10:43:56;13.70;99.90
84008;DHT22;74070;50.948;6.954;2024-02-14T10:46:23;13.90;99.90
84008;DHT22;74070;50.948;6.954;2024-02-14T10:48:53;13.90;99.90
84008;DHT22;74070;50.948;6.954;2024-02-14T10:51:19;13.90;99.90
84008;DHT22;74070;50.948;6.954;2024-02-14T10:53:45;13.80;99.90
84008;DHT22;74070;50.948;6.954;2024-02-14T10:56:15;13.90;99.90
84008;DHT22;74070;50.948;6.954;2024-02-14T10:58:39;14.10;99.90
84008;DHT22;74070;50.948;6.954;2024-02-14T11:01:06;14.20;99.90
84008;DHT22;74070;50.948;6.954;2024-02-14T11:03:32;14.10;99.90
84008;DHT22;74070;50.948;6.954;2024-02-14T11:06:01;14.20;99.90
84008;DHT22;74070;50.948;6.954;2024-02-14T11:08:28;14.00;99.90
84008;DHT22;74070;50.948;6.954;2024-02-14T11:10:54;13.70;99.90
84008;DHT22;74070;50.948;6.954;2024-02-14T11:13:20;13.50;99.90
84008;DHT22;74070;50.948;6.954;2024-02-14T11:15:51;13.10;99.90
84008;DHT22;74070;50.948;6.954;2024-02-14T11:18:24;12.80;99.90
84008;DHT22;74070;50.948;6.954;2024-02-14T11:20:42;12.80;99.90
84008;DHT22;74070;50.948;6.954;2024-02-14T11:23:11;12.30;99.90
84008;DHT22;74070;50.948;6.954;2024-02-14T11:25:38;12.20;99.90
84008;DHT22;74070;50.948;6.954;2024-02-14T11:28:13;12.30;99.90
84008;DHT22;74070;50.948;6.954;2024-02-14T11:30:40;12.30;99.90
84008;DHT22;74070;50.948;6.954;2024-02-14T11:33:23;12.50;99.90
84008;DHT22;74070;50.948;6.954;2024-02-14T11:35:50;12.60;99.90
84008;DHT22;74070;50.948;6.954;2024-02-14T11:38:16;12.70;99.90
84008;DHT22;74070;50.948;6.954;2024-02-14T11:40:43;12.90;99.90
84008;DHT22;74070;50.948;6.954;2024-02-14T11:43:13;13.00;99.90
84008;DHT22;74070;50.948;6.954;2024-02-14T11:45:39;13.10;99.90
84008;DHT22;74070;50.948;6.954;2024-02-14T11:48:06;13.40;99.90
84008;DHT22;74070;50.948;6.954;2024-02-14T11:50:33;13.60;99.90
84008;DHT22;74070;50.948;6.954;2024-02-14T11:53:00;13.70;99.90
84008;DHT22;74070;50.948;6.954;2024-02-14T11:55:28;13.80;99.90
84008;DHT22;74070;50.948;6.954;2024-02-14T11:57:56;13.80;99.90
84008;DHT22;74070;50.948;6.954;2024-02-14T12:00:23;13.90;99.90
84008;DHT22;74070;50.948;6.954;2024-02-14T12:02:50;13.90;99.90
84008;DHT22;74070;50.948;6.954;2024-02-14T12:05:17;14.00;99.90
84008;DHT22;74070;50.948;6.954;2024-02-14T12:07:43;14.10;99.90
84008;DHT22;74070;50.948;6.954;2024-02-14T12:10:09;14.10;99.90
84008;DHT22;74070;50.948;6.954;2024-02-14T12:12:36;14.10;99.90
84008;DHT22;74070;50.948;6.954;2024-02-14T12:15:03;14.20;99.90
84008;DHT22;74070;50.948;6.954;2024-02-14T12:17:29;14.10;99.90
84008;DHT22;74070;50.948;6.954;2024-02-14T12:20:09;14.00;99.90
84008;DHT22;74070;50.948;6.954;2024-02-14T12:22:35;13.90;99.90
84008;DHT22;74070;50.948;6.954;2024-02-14T12:25:02;13.70;99.90
84008;DHT22;74070;50.948;6.954;2024-02-14T12:27:31;13.70;99.90
84008;DHT22;74070;50.948;6.954;2024-02-14T12:29:55;13.60;99.90
84008;DHT22;74070;50.948;6.954;2024-02-14T12:32:22;13.50;99.90
84008;DHT22;74070;50.948;6.954;2024-02-14T12:34:48;14.00;99.90
84008;DHT22;74070;50.948;6.954;2024-02-14T12:37:16;13.80;99.90
84008;DHT22;74070;50.948;6.954;2024-02-14T12:39:43;14.00;99.90
84008;DHT22;74070;50.948;6.954;2024-02-14T12:42:10;14.10;99.90
84008;DHT22;74070;50.948;6.954;2024-02-14T12:44:37;14.00;99.90
84008;DHT22;74070;50.948;6.954;2024-02-14T12:47:04;14.10;99.90
84008;DHT22;74070;50.948;6.954;2024-02-14T12:49:31;14.00;99.90
84008;DHT22;74070;50.948;6.954;2024-02-14T12:51:58;14.00;99.90
84008;DHT22;74070;50.948;6.954;2024-02-14T12:54:24;13.90;99.90
84008;DHT22;74070;50.948;6.954;2024-02-14T12:56:51;14.00;99.90
84008;DHT22;74070;50.948;6.954;2024-02-14T12:59:17;13.90;99.90
84008;DHT22;74070;50.948;6.954;2024-02-14T13:01:45;13.90;99.90
84008;DHT22;74070;50.948;6.954;2024-02-14T13:04:12;14.00;99.90
84008;DHT22;74070;50.948;6.954;2024-02-14T13:06:39;14.00;99.90
84008;DHT22;74070;50.948;6.954;2024-02-14T13:09:05;14.10;99.90
84008;DHT22;74070;50.948;6.954;2024-02-14T13:11:32;14.10;99.90
84008;DHT22;74070;50.948;6.954;2024-02-14T13:13:59;14.10;99.90
84008;DHT22;74070;50.948;6.954;2024-02-14T13:16:25;14.10;99.90
84008;DHT22;74070;50.948;6.954;2024-02-14T13:18:52;14.10;99.90
84008;DHT22;74070;50.948;6.954;2024-02-14T13:21:18;14.00;99.90
84008;DHT22;74070;50.948;6.954;2024-02-14T13:23:45;13.70;99.90
84008;DHT22;74070;50.948;6.954;2024-02-14T13:26:11;13.60;99.90
84008;DHT22;74070;50.948;6.954;2024-02-14T13:28:38;13.50;99.90
84008;DHT22;74070;50.948;6.954;2024-02-14T13:31:05;13.50;99.90
84008;DHT22;74070;50.948;6.954;2024-02-14T13:33:31;13.60;99.90
84008;DHT22;74070;50.948;6.954;2024-02-14T13:35:58;13.60;99.90
84008;DHT22;74070;50.948;6.954;2024-02-14T13:38:24;13.60;99.90
84008;DHT22;74070;50.948;6.954;2024-02-14T13:40:51;13.70;99.90
84008;DHT22;74070;50.948;6.954;2024-02-14T13:43:18;13.60;99.90
84008;DHT22;74070;50.948;6.954;2024-02-14T13:45:44;13.60;99.90
84008;DHT22;74070;50.948;6.954;2024-02-14T13:48:11;13.60;99.90
84008;DHT22;74070;50.948;6.954;2024-02-14T13:50:38;13.30;99.90
84008;DHT22;74070;50.948;6.954;2024-02-14T13:53:06;13.30;99.90
84008;DHT22;74070;50.948;6.954;2024-02-14T13:55:32;13.10;99.90
84008;DHT22;74070;50.948;6.954;2024-02-14T13:58:00;12.60;99.90
84008;DHT22;74070;50.948;6.954;2024-02-14T14:00:27;12.50;99.90
84008;DHT22;74070;50.948;6.954;2024-02-14T14:02:54;12.30;99.90
84008;DHT22;74070;50.948;6.954;2024-02-14T14:05:22;12.30;99.90
84008;DHT22;74070;50.948;6.954;2024-02-14T14:07:49;12.20;99.90
84008;DHT22;74070;50.948;6.954;2024-02-14T14:10:16;12.10;99.90
84008;DHT22;74070;50.948;6.954;2024-02-14T14:12:43;12.00;99.90
84008;DHT22;74070;50.948;6.954;2024-02-14T14:15:09;12.00;99.90
84008;DHT22;74070;50.948;6.954;2024-02-14T14:17:36;12.00;99.90
84008;DHT22;74070;50.948;6.954;2024-02-14T14:20:03;12.00;99.90
84008;DHT22;74070;50.948;6.954;2024-02-14T14:22:30;11.90;99.90
84008;DHT22;74070;50.948;6.954;2024-02-14T14:24:56;11.90;99.90
84008;DHT22;74070;50.948;6.954;2024-02-14T14:27:23;11.80;99.90
84008;DHT22;74070;50.948;6.954;2024-02-14T14:29:51;11.70;99.90
84008;DHT22;74070;50.948;6.954;2024-02-14T14:32:18;11.60;99.90
84008;DHT22;74070;50.948;6.954;2024-02-14T14:34:45;11.60;99.90
84008;DHT22;74070;50.948;6.954;2024-02-14T14:37:11;11.50;99.90
84008;DHT22;74070;50.948;6.954;2024-02-14T14:39:38;11.50;99.90
84008;DHT22;74070;50.948;6.954;2024-02-14T14:42:05;11.50;99.90
84008;DHT22;74070;50.948;6.954;2024-02-14T14:44:31;11.40;99.90
84008;DHT22;74070;50.948;6.954;2024-02-14T14:46:58;11.50;99.90
84008;DHT22;74070;50.948;6.954;2024-02-14T14:49:24;11.50;99.90
84008;DHT22;74070;50.948;6.954;2024-02-14T14:51:51;11.40;99.90
84008;DHT22;74070;50.948;6.954;2024-02-14T14:54:18;11.40;99.90
84008;DHT22;74070;50.948;6.954;2024-02-14T14:56:46;11.40;99.90
84008;DHT22;74070;50.948;6.954;2024-02-14T14:59:13;11.40;99.90
84008;DHT22;74070;50.948;6.954;2024-02-14T15:01:40;11.40;99.90
84008;DHT22;74070;50.948;6.954;2024-02-14T15:04:06;11.40;99.90
84008;DHT22;74070;50.948;6.954;2024-02-14T15:06:33;11.40;99.90
84008;DHT22;74070;50.948;6.954;2024-02-14T15:08:59;11.40;99.90
84008;DHT22;74070;50.948;6.954;2024-02-14T15:11:26;11.30;99.90
84008;DHT22;74070;50.948;6.954;2024-02-14T15:13:53;11.40;99.90
84008;DHT22;74070;50.948;6.954;2024-02-14T15:16:19;11.40;99.90
84008;DHT22;74070;50.948;6.954;2024-02-14T15:18:46;11.40;99.90
84008;DHT22;74070;50.948;6.954;2024-02-14T15:21:12;11.40;99.90
84008;DHT22;74070;50.948;6.954;2024-02-14T15:23:39;11.40;99.90
84008;DHT22;74070;50.948;6.954;2024-02-14T15:26:06;11.40;99.90
84008;DHT22;74070;50.948;6.954;2024-02-14T15:28:32;11.30;99.90
84008;DHT22;74070;50.948;6.954;2024-02-14T15:30:59;11.30;99.90
84008;DHT22;74070;50.948;6.954;2024-02-14T15:33:31;11.30;99.90
84008;DHT22;74070;50.948;6.954;2024-02-14T15:35:58;11.30;99.90